West Galveston, Texas
Current Conditions -  °F | °C
As of 3:52 AM on Monday 22 Dec 2014 (Local Time) from KGLS Reporting Station
Few Clouds Few Clouds  
Wind Chill: 61°   Ceiling: Unl
Heat Index: 61°   Visibility: 10mi
Dew Point: 60°   Wind: 6mph
Humidity: 97%   Direction: 120°ESE
Pressure: 29.81"   Gusts: NA
Location:  29.2029°N, 94.9576°W
Report Text: KGLS 220952Z AUTO 12005KT 10SM FEW048 16/16 A2981 RMK AO1 SLP095 T01610156
Loading
Personal Weather Stations






























Interactive Weather Map New forecast layout! Learn more

10-Day Weather Forecast

Advertisements
Track Severe Weather on mobile